KALO/ALO METAR and TAF weather

Enter ICAO airport designator
Station Type Date Time Source
KALO METAR 2020/06/06 13:54 UTC NOAA

KALO 061354Z 06011KT 10SM FEW060 SCT100 22/12 A3009 RMK AO2 SLP185 T02220117


Station Type Date Time Source
KALO Decoded METAR 2020/06/06 13:54 UTC NOAA

WATERLOO MUNICIPAL AIRPORT, IA, United States (KALO) 42-33N 92-24W 264M
Jun 06, 2020 - 09:54 AM EDT / 2020.06.06 1354 UTC
Wind: from the ENE (060 degrees) at 13 MPH (11 KT):0
Visibility: 10 mile(s):0
Sky conditions: partly cloudy
Temperature: 72.0 F (22.2 C)
Dew Point: 53.1 F (11.7 C)
Relative Humidity: 51%
Pressure (altimeter): 30.09 in. Hg (1018 hPa)
ob: KALO 061354Z 06011KT 10SM FEW060 SCT100 22/12 A3009 RMK AO2 SLP185 T02220117
cycle: 14

Station Type Date Time Source
KALO TAF 2020/06/06 12:33 UTC NOAA

TAF KALO 061131Z 0612/0712 VRB05KT P6SM SCT090
FM061800 11008KT P6SM BKN250

Example: see airport list